sensor_id;sensor_type;location;lat;lon;timestamp;temperature;humidity
40670;DHT22;26355;45.528;9.234;2023-02-01T00:00:00;10.30;99.90
40670;DHT22;26355;45.528;9.234;2023-02-01T00:02:26;9.10;99.90
40670;DHT22;26355;45.528;9.234;2023-02-01T00:04:52;8.90;99.90
40670;DHT22;26355;45.528;9.234;2023-02-01T00:07:17;11.10;99.90
40670;DHT22;26355;45.528;9.234;2023-02-01T00:09:43;8.90;99.90
40670;DHT22;26355;45.528;9.234;2023-02-01T00:12:08;9.60;99.90
40670;DHT22;26355;45.528;9.234;2023-02-01T00:14:34;8.80;99.90
40670;DHT22;26355;45.528;9.234;2023-02-01T00:17:07;8.40;99.90
40670;DHT22;26355;45.528;9.234;2023-02-01T00:19:33;8.90;99.90
40670;DHT22;26355;45.528;9.234;2023-02-01T00:21:59;8.90;99.90
40670;DHT22;26355;45.528;9.234;2023-02-01T00:24:25;8.70;99.90
40670;DHT22;26355;45.528;9.234;2023-02-01T00:26:51;8.80;99.90
40670;DHT22;26355;45.528;9.234;2023-02-01T00:29:18;9.70;99.90
40670;DHT22;26355;45.528;9.234;2023-02-01T00:31:44;9.20;99.90
40670;DHT22;26355;45.528;9.234;2023-02-01T00:34:15;8.90;99.90
40670;DHT22;26355;45.528;9.234;2023-02-01T00:36:41;8.80;99.90
40670;DHT22;26355;45.528;9.234;2023-02-01T00:39:07;9.10;99.90
40670;DHT22;26355;45.528;9.234;2023-02-01T00:41:33;9.30;99.90
40670;DHT22;26355;45.528;9.234;2023-02-01T00:43:59;9.50;99.90
40670;DHT22;26355;45.528;9.234;2023-02-01T00:46:24;8.80;99.90
40670;DHT22;26355;45.528;9.234;2023-02-01T00:48:51;8.70;99.90
40670;DHT22;26355;45.528;9.234;2023-02-01T00:51:26;8.80;99.90
40670;DHT22;26355;45.528;9.234;2023-02-01T00:53:52;8.80;99.90
40670;DHT22;26355;45.528;9.234;2023-02-01T00:56:18;8.80;99.90
40670;DHT22;26355;45.528;9.234;2023-02-01T00:58:44;8.40;99.90
40670;DHT22;26355;45.528;9.234;2023-02-01T01:01:21;8.90;99.90
40670;DHT22;26355;45.528;9.234;2023-02-01T01:03:51;8.80;99.90
40670;DHT22;26355;45.528;9.234;2023-02-01T01:06:20;8.80;99.90
40670;DHT22;26355;45.528;9.234;2023-02-01T01:08:46;8.60;99.90
40670;DHT22;26355;45.528;9.234;2023-02-01T01:11:19;9.30;99.90
40670;DHT22;26355;45.528;9.234;2023-02-01T01:13:48;8.70;99.90
40670;DHT22;26355;45.528;9.234;2023-02-01T01:16:15;9.90;99.90
40670;DHT22;26355;45.528;9.234;2023-02-01T01:18:41;9.00;99.90
40670;DHT22;26355;45.528;9.234;2023-02-01T01:21:08;8.50;99.90
40670;DHT22;26355;45.528;9.234;2023-02-01T01:23:35;8.70;99.90
40670;DHT22;26355;45.528;9.234;2023-02-01T01:26:05;8.70;99.90
40670;DHT22;26355;45.528;9.234;2023-02-01T01:28:31;8.40;99.90
40670;DHT22;26355;45.528;9.234;2023-02-01T01:30:57;8.50;99.90
40670;DHT22;26355;45.528;9.234;2023-02-01T01:33:23;9.30;99.90
40670;DHT22;26355;45.528;9.234;2023-02-01T01:35:48;9.70;99.90
40670;DHT22;26355;45.528;9.234;2023-02-01T01:38:14;8.40;99.90
40670;DHT22;26355;45.528;9.234;2023-02-01T01:40:40;8.70;99.90
40670;DHT22;26355;45.528;9.234;2023-02-01T01:43:14;8.10;99.90
40670;DHT22;26355;45.528;9.234;2023-02-01T01:45:40;10.90;99.90
40670;DHT22;26355;45.528;9.234;2023-02-01T01:48:07;8.80;99.90
40670;DHT22;26355;45.528;9.234;2023-02-01T01:50:46;8.50;99.90
40670;DHT22;26355;45.528;9.234;2023-02-01T01:53:18;8.50;99.90
40670;DHT22;26355;45.528;9.234;2023-02-01T01:55:45;9.70;99.90
40670;DHT22;26355;45.528;9.234;2023-02-01T01:58:14;9.40;99.90
40670;DHT22;26355;45.528;9.234;2023-02-01T02:00:40;8.50;99.90
40670;DHT22;26355;45.528;9.234;2023-02-01T02:03:17;8.60;99.90
40670;DHT22;26355;45.528;9.234;2023-02-01T02:05:44;7.40;99.90
40670;DHT22;26355;45.528;9.234;2023-02-01T02:08:11;8.30;99.90
40670;DHT22;26355;45.528;9.234;2023-02-01T02:10:37;8.40;99.90
40670;DHT22;26355;45.528;9.234;2023-02-01T02:13:21;9.20;99.90
40670;DHT22;26355;45.528;9.234;2023-02-01T02:18:49;8.80;99.90
40670;DHT22;26355;45.528;9.234;2023-02-01T02:21:30;8.30;99.90
40670;DHT22;26355;45.528;9.234;2023-02-01T02:24:09;8.20;99.90
40670;DHT22;26355;45.528;9.234;2023-02-01T02:31:58;7.50;99.90
40670;DHT22;26355;45.528;9.234;2023-02-01T02:37:04;8.50;99.90
40670;DHT22;26355;45.528;9.234;2023-02-01T02:40:35;8.30;99.90
40670;DHT22;26355;45.528;9.234;2023-02-01T02:42:43;8.20;99.90
40670;DHT22;26355;45.528;9.234;2023-02-01T02:45:44;8.30;99.90
40670;DHT22;26355;45.528;9.234;2023-02-01T02:51:11;8.50;99.90
40670;DHT22;26355;45.528;9.234;2023-02-01T02:53:58;8.90;99.90
40670;DHT22;26355;45.528;9.234;2023-02-01T02:56:43;8.10;99.90
40670;DHT22;26355;45.528;9.234;2023-02-01T02:59:27;7.30;99.90
40670;DHT22;26355;45.528;9.234;2023-02-01T03:02:12;9.00;99.90
40670;DHT22;26355;45.528;9.234;2023-02-01T03:04:57;8.10;99.90
40670;DHT22;26355;45.528;9.234;2023-02-01T03:10:07;7.60;99.50
40670;DHT22;26355;45.528;9.234;2023-02-01T03:12:36;8.10;99.70
40670;DHT22;26355;45.528;9.234;2023-02-01T03:15:38;8.00;99.60
40670;DHT22;26355;45.528;9.234;2023-02-01T03:18:08;8.10;99.50
40670;DHT22;26355;45.528;9.234;2023-02-01T03:20:36;8.00;99.30
40670;DHT22;26355;45.528;9.234;2023-02-01T03:23:02;9.40;99.60
40670;DHT22;26355;45.528;9.234;2023-02-01T03:25:31;8.70;99.20
40670;DHT22;26355;45.528;9.234;2023-02-01T03:28:02;7.90;98.90
40670;DHT22;26355;45.528;9.234;2023-02-01T03:30:29;8.60;99.00
40670;DHT22;26355;45.528;9.234;2023-02-01T03:32:56;8.80;99.00
40670;DHT22;26355;45.528;9.234;2023-02-01T03:38:12;8.00;98.70
40670;DHT22;26355;45.528;9.234;2023-02-01T03:40:39;9.40;99.10
40670;DHT22;26355;45.528;9.234;2023-02-01T03:43:06;7.60;98.80
40670;DHT22;26355;45.528;9.234;2023-02-01T03:45:40;8.40;99.10
40670;DHT22;26355;45.528;9.234;2023-02-01T03:48:07;8.20;98.70
40670;DHT22;26355;45.528;9.234;2023-02-01T03:50:34;7.90;98.60
40670;DHT22;26355;45.528;9.234;2023-02-01T03:53:12;8.10;98.50
40670;DHT22;26355;45.528;9.234;2023-02-01T03:55:40;8.20;98.60
40670;DHT22;26355;45.528;9.234;2023-02-01T03:58:07;9.50;99.00
40670;DHT22;26355;45.528;9.234;2023-02-01T04:00:33;7.10;98.30
40670;DHT22;26355;45.528;9.234;2023-02-01T04:02:58;7.90;98.40
40670;DHT22;26355;45.528;9.234;2023-02-01T04:05:24;7.20;98.30
40670;DHT22;26355;45.528;9.234;2023-02-01T04:07:49;7.90;98.50
40670;DHT22;26355;45.528;9.234;2023-02-01T04:10:15;7.40;98.30
40670;DHT22;26355;45.528;9.234;2023-02-01T04:12:41;8.30;98.50
40670;DHT22;26355;45.528;9.234;2023-02-01T04:15:06;8.30;98.70
40670;DHT22;26355;45.528;9.234;2023-02-01T04:17:32;8.50;98.70
40670;DHT22;26355;45.528;9.234;2023-02-01T04:19:58;9.10;98.90
40670;DHT22;26355;45.528;9.234;2023-02-01T04:22:23;7.90;98.70
40670;DHT22;26355;45.528;9.234;2023-02-01T04:24:48;7.60;98.50
40670;DHT22;26355;45.528;9.234;2023-02-01T04:27:14;9.20;99.00
40670;DHT22;26355;45.528;9.234;2023-02-01T04:29:39;7.80;98.70
40670;DHT22;26355;45.528;9.234;2023-02-01T04:32:05;8.50;98.80
40670;DHT22;26355;45.528;9.234;2023-02-01T04:34:30;7.60;98.50
40670;DHT22;26355;45.528;9.234;2023-02-01T04:36:56;8.00;98.40
40670;DHT22;26355;45.528;9.234;2023-02-01T04:39:22;8.10;98.40
40670;DHT22;26355;45.528;9.234;2023-02-01T04:41:47;8.10;98.20
40670;DHT22;26355;45.528;9.234;2023-02-01T04:44:13;8.40;98.20
40670;DHT22;26355;45.528;9.234;2023-02-01T04:46:39;8.70;98.30
40670;DHT22;26355;45.528;9.234;2023-02-01T04:49:05;8.00;98.00
40670;DHT22;26355;45.528;9.234;2023-02-01T04:51:30;8.20;98.20
40670;DHT22;26355;45.528;9.234;2023-02-01T04:53:56;9.30;98.40
40670;DHT22;26355;45.528;9.234;2023-02-01T04:56:21;9.20;98.50
40670;DHT22;26355;45.528;9.234;2023-02-01T04:58:47;8.10;98.40
40670;DHT22;26355;45.528;9.234;2023-02-01T05:01:12;7.80;98.30
40670;DHT22;26355;45.528;9.234;2023-02-01T05:03:38;8.10;98.60
40670;DHT22;26355;45.528;9.234;2023-02-01T05:06:03;7.10;98.40
40670;DHT22;26355;45.528;9.234;2023-02-01T05:08:30;7.90;98.70
40670;DHT22;26355;45.528;9.234;2023-02-01T05:10:56;7.70;98.60
40670;DHT22;26355;45.528;9.234;2023-02-01T05:13:21;7.90;98.80
40670;DHT22;26355;45.528;9.234;2023-02-01T05:16:05;7.70;98.90
40670;DHT22;26355;45.528;9.234;2023-02-01T05:18:31;7.80;99.00
40670;DHT22;26355;45.528;9.234;2023-02-01T05:20:57;8.00;99.20
40670;DHT22;26355;45.528;9.234;2023-02-01T05:23:22;7.40;99.10
40670;DHT22;26355;45.528;9.234;2023-02-01T05:25:48;8.00;99.30
40670;DHT22;26355;45.528;9.234;2023-02-01T05:28:13;9.00;99.40
40670;DHT22;26355;45.528;9.234;2023-02-01T05:30:39;8.60;99.40
40670;DHT22;26355;45.528;9.234;2023-02-01T05:33:04;8.00;99.20
40670;DHT22;26355;45.528;9.234;2023-02-01T05:35:30;8.10;99.20
40670;DHT22;26355;45.528;9.234;2023-02-01T05:37:55;8.30;99.30
40670;DHT22;26355;45.528;9.234;2023-02-01T05:40:21;8.20;99.20
40670;DHT22;26355;45.528;9.234;2023-02-01T05:42:46;8.20;99.20
40670;DHT22;26355;45.528;9.234;2023-02-01T05:45:12;9.10;99.40
40670;DHT22;26355;45.528;9.234;2023-02-01T05:47:37;9.20;99.40
40670;DHT22;26355;45.528;9.234;2023-02-01T05:52:29;9.80;99.30
40670;DHT22;26355;45.528;9.234;2023-02-01T05:54:54;8.80;99.20
40670;DHT22;26355;45.528;9.234;2023-02-01T05:57:20;8.30;99.10
40670;DHT22;26355;45.528;9.234;2023-02-01T05:59:45;8.70;99.20
40670;DHT22;26355;45.528;9.234;2023-02-01T06:02:11;9.00;99.40
40670;DHT22;26355;45.528;9.234;2023-02-01T06:04:37;8.80;99.30
40670;DHT22;26355;45.528;9.234;2023-02-01T06:07:02;8.70;99.20
40670;DHT22;26355;45.528;9.234;2023-02-01T06:09:28;10.00;99.50
40670;DHT22;26355;45.528;9.234;2023-02-01T06:11:53;8.80;99.20
40670;DHT22;26355;45.528;9.234;2023-02-01T06:14:19;8.70;99.30
40670;DHT22;26355;45.528;9.234;2023-02-01T06:16:44;8.80;99.30
40670;DHT22;26355;45.528;9.234;2023-02-01T06:19:11;9.90;99.60
40670;DHT22;26355;45.528;9.234;2023-02-01T06:21:37;8.70;99.30
40670;DHT22;26355;45.528;9.234;2023-02-01T06:24:03;8.60;99.40
40670;DHT22;26355;45.528;9.234;2023-02-01T06:26:29;8.40;99.40
40670;DHT22;26355;45.528;9.234;2023-02-01T06:28:55;9.40;99.60
40670;DHT22;26355;45.528;9.234;2023-02-01T06:31:21;9.20;99.90
40670;DHT22;26355;45.528;9.234;2023-02-01T06:33:47;8.70;99.50
40670;DHT22;26355;45.528;9.234;2023-02-01T06:36:14;8.90;99.40
40670;DHT22;26355;45.528;9.234;2023-02-01T06:38:41;8.80;99.30
40670;DHT22;26355;45.528;9.234;2023-02-01T06:41:06;10.10;99.40
40670;DHT22;26355;45.528;9.234;2023-02-01T06:43:32;8.40;99.20
40670;DHT22;26355;45.528;9.234;2023-02-01T06:46:01;8.80;99.30
40670;DHT22;26355;45.528;9.234;2023-02-01T06:48:26;9.20;99.20
40670;DHT22;26355;45.528;9.234;2023-02-01T06:50:52;8.70;99.20
40670;DHT22;26355;45.528;9.234;2023-02-01T06:53:17;8.70;99.20
40670;DHT22;26355;45.528;9.234;2023-02-01T06:55:51;8.40;99.10
40670;DHT22;26355;45.528;9.234;2023-02-01T06:58:16;9.30;99.20
40670;DHT22;26355;45.528;9.234;2023-02-01T07:00:42;8.60;98.90
40670;DHT22;26355;45.528;9.234;2023-02-01T07:03:07;10.40;99.30
40670;DHT22;26355;45.528;9.234;2023-02-01T07:05:33;8.80;98.90
40670;DHT22;26355;45.528;9.234;2023-02-01T07:07:58;8.60;98.70
40670;DHT22;26355;45.528;9.234;2023-02-01T07:10:24;9.00;98.80
40670;DHT22;26355;45.528;9.234;2023-02-01T07:12:49;8.70;98.80
40670;DHT22;26355;45.528;9.234;2023-02-01T07:15:15;8.30;98.70
40670;DHT22;26355;45.528;9.234;2023-02-01T07:17:40;8.80;98.70
40670;DHT22;26355;45.528;9.234;2023-02-01T07:20:06;10.30;99.10
40670;DHT22;26355;45.528;9.234;2023-02-01T07:22:32;8.20;98.70
40670;DHT22;26355;45.528;9.234;2023-02-01T07:24:57;8.90;98.80
40670;DHT22;26355;45.528;9.234;2023-02-01T07:27:23;8.70;98.70
40670;DHT22;26355;45.528;9.234;2023-02-01T07:29:51;8.90;98.80
40670;DHT22;26355;45.528;9.234;2023-02-01T07:32:16;11.40;99.50
40670;DHT22;26355;45.528;9.234;2023-02-01T07:34:43;9.10;99.00
40670;DHT22;26355;45.528;9.234;2023-02-01T07:37:09;9.00;99.40
40670;DHT22;26355;45.528;9.234;2023-02-01T07:39:34;9.80;99.70
40670;DHT22;26355;45.528;9.234;2023-02-01T07:42:00;9.40;99.50
40670;DHT22;26355;45.528;9.234;2023-02-01T07:44:25;10.20;99.40
40670;DHT22;26355;45.528;9.234;2023-02-01T07:46:51;10.00;98.80
40670;DHT22;26355;45.528;9.234;2023-02-01T07:49:16;12.80;98.50
40670;DHT22;26355;45.528;9.234;2023-02-01T07:51:43;11.70;97.20
40670;DHT22;26355;45.528;9.234;2023-02-01T07:54:08;12.30;96.50
40670;DHT22;26355;45.528;9.234;2023-02-01T07:56:34;13.70;95.80
40670;DHT22;26355;45.528;9.234;2023-02-01T07:58:59;13.30;95.00
40670;DHT22;26355;45.528;9.234;2023-02-01T08:01:26;13.40;94.70
40670;DHT22;26355;45.528;9.234;2023-02-01T08:03:53;13.20;94.40
40670;DHT22;26355;45.528;9.234;2023-02-01T08:06:19;12.20;94.10
40670;DHT22;26355;45.528;9.234;2023-02-01T08:08:47;13.50;94.30
40670;DHT22;26355;45.528;9.234;2023-02-01T08:11:13;13.40;93.90
40670;DHT22;26355;45.528;9.234;2023-02-01T08:13:39;13.40;94.00
40670;DHT22;26355;45.528;9.234;2023-02-01T08:16:05;13.50;93.90
40670;DHT22;26355;45.528;9.234;2023-02-01T08:18:32;14.00;93.80
40670;DHT22;26355;45.528;9.234;2023-02-01T08:21:02;13.90;93.30
40670;DHT22;26355;45.528;9.234;2023-02-01T08:23:28;14.30;93.10
40670;DHT22;26355;45.528;9.234;2023-02-01T08:25:54;14.50;93.00
40670;DHT22;26355;45.528;9.234;2023-02-01T08:28:19;14.00;93.00
40670;DHT22;26355;45.528;9.234;2023-02-01T08:30:45;13.80;93.00
40670;DHT22;26355;45.528;9.234;2023-02-01T08:33:10;14.00;93.20
40670;DHT22;26355;45.528;9.234;2023-02-01T08:35:37;13.60;92.80
40670;DHT22;26355;45.528;9.234;2023-02-01T08:38:02;14.80;93.10
40670;DHT22;26355;45.528;9.234;2023-02-01T08:40:28;14.40;93.00
40670;DHT22;26355;45.528;9.234;2023-02-01T08:42:54;15.00;92.70
40670;DHT22;26355;45.528;9.234;2023-02-01T08:45:26;15.30;92.20
40670;DHT22;26355;45.528;9.234;2023-02-01T08:47:54;15.60;92.00
40670;DHT22;26355;45.528;9.234;2023-02-01T08:50:20;15.70;91.30
40670;DHT22;26355;45.528;9.234;2023-02-01T08:52:46;16.50;91.00
40670;DHT22;26355;45.528;9.234;2023-02-01T08:55:12;17.20;90.80
40670;DHT22;26355;45.528;9.234;2023-02-01T08:57:37;16.90;90.00
40670;DHT22;26355;45.528;9.234;2023-02-01T09:00:04;16.80;89.10
40670;DHT22;26355;45.528;9.234;2023-02-01T09:02:30;16.40;86.80
40670;DHT22;26355;45.528;9.234;2023-02-01T09:04:56;16.20;88.90
40670;DHT22;26355;45.528;9.234;2023-02-01T09:07:22;15.50;88.00
40670;DHT22;26355;45.528;9.234;2023-02-01T09:09:47;15.00;89.90
40670;DHT22;26355;45.528;9.234;2023-02-01T09:12:13;14.60;89.20
40670;DHT22;26355;45.528;9.234;2023-02-01T09:14:38;15.70;90.50
40670;DHT22;26355;45.528;9.234;2023-02-01T09:17:03;14.60;90.70
40670;DHT22;26355;45.528;9.234;2023-02-01T09:19:30;14.80;90.20
40670;DHT22;26355;45.528;9.234;2023-02-01T09:21:56;14.90;89.60
40670;DHT22;26355;45.528;9.234;2023-02-01T09:24:22;15.00;88.70
40670;DHT22;26355;45.528;9.234;2023-02-01T09:26:47;15.20;88.10
40670;DHT22;26355;45.528;9.234;2023-02-01T09:29:14;15.40;87.90
40670;DHT22;26355;45.528;9.234;2023-02-01T09:31:39;15.40;88.10
40670;DHT22;26355;45.528;9.234;2023-02-01T09:34:05;15.70;87.30
40670;DHT22;26355;45.528;9.234;2023-02-01T09:36:34;15.90;86.20
40670;DHT22;26355;45.528;9.234;2023-02-01T09:39:00;16.10;86.90
40670;DHT22;26355;45.528;9.234;2023-02-01T09:41:38;16.40;86.80
40670;DHT22;26355;45.528;9.234;2023-02-01T09:44:12;16.40;85.70
40670;DHT22;26355;45.528;9.234;2023-02-01T09:46:38;16.70;86.10
40670;DHT22;26355;45.528;9.234;2023-02-01T09:49:05;16.80;85.60
40670;DHT22;26355;45.528;9.234;2023-02-01T09:51:36;16.90;84.40
40670;DHT22;26355;45.528;9.234;2023-02-01T09:54:06;17.20;83.90
40670;DHT22;26355;45.528;9.234;2023-02-01T09:56:56;17.40;84.50
40670;DHT22;26355;45.528;9.234;2023-02-01T09:59:29;17.70;83.60
40670;DHT22;26355;45.528;9.234;2023-02-01T10:01:56;17.80;82.90
40670;DHT22;26355;45.528;9.234;2023-02-01T10:04:21;18.20;83.50
40670;DHT22;26355;45.528;9.234;2023-02-01T10:22:44;19.10;81.80
40670;DHT22;26355;45.528;9.234;2023-02-01T10:25:26;19.00;82.20
40670;DHT22;26355;45.528;9.234;2023-02-01T10:27:52;19.00;81.70
40670;DHT22;26355;45.528;9.234;2023-02-01T10:30:21;18.90;81.80
40670;DHT22;26355;45.528;9.234;2023-02-01T10:32:48;19.00;82.00
40670;DHT22;26355;45.528;9.234;2023-02-01T10:35:16;19.00;83.00
40670;DHT22;26355;45.528;9.234;2023-02-01T10:37:42;19.30;84.40
40670;DHT22;26355;45.528;9.234;2023-02-01T10:40:22;19.00;84.30
40670;DHT22;26355;45.528;9.234;2023-02-01T10:42:49;19.20;84.80
40670;DHT22;26355;45.528;9.234;2023-02-01T10:45:19;19.40;85.00
40670;DHT22;26355;45.528;9.234;2023-02-01T10:47:45;19.50;85.10
40670;DHT22;26355;45.528;9.234;2023-02-01T10:50:16;19.70;85.70
40670;DHT22;26355;45.528;9.234;2023-02-01T10:53:44;20.00;85.70
40670;DHT22;26355;45.528;9.234;2023-02-01T10:58:05;20.10;84.90
40670;DHT22;26355;45.528;9.234;2023-02-01T11:00:36;20.30;84.50
40670;DHT22;26355;45.528;9.234;2023-02-01T11:03:18;21.50;83.20
40670;DHT22;26355;45.528;9.234;2023-02-01T11:05:45;23.10;82.00
40670;DHT22;26355;45.528;9.234;2023-02-01T11:08:13;24.40;78.80
40670;DHT22;26355;45.528;9.234;2023-02-01T11:10:41;25.30;75.80
40670;DHT22;26355;45.528;9.234;2023-02-01T11:13:17;26.30;73.70
40670;DHT22;26355;45.528;9.234;2023-02-01T11:15:43;27.00;72.00
40670;DHT22;26355;45.528;9.234;2023-02-01T11:18:19;27.70;70.70
40670;DHT22;26355;45.528;9.234;2023-02-01T11:20:45;28.40;69.10
40670;DHT22;26355;45.528;9.234;2023-02-01T11:23:15;29.10;68.20
40670;DHT22;26355;45.528;9.234;2023-02-01T11:25:48;29.60;66.70
40670;DHT22;26355;45.528;9.234;2023-02-01T11:28:13;29.50;66.00
40670;DHT22;26355;45.528;9.234;2023-02-01T11:30:40;29.80;65.50
40670;DHT22;26355;45.528;9.234;2023-02-01T11:33:09;29.50;64.80
40670;DHT22;26355;45.528;9.234;2023-02-01T11:35:37;29.00;64.70
40670;DHT22;26355;45.528;9.234;2023-02-01T11:38:10;28.70;64.60
40670;DHT22;26355;45.528;9.234;2023-02-01T11:40:37;28.90;64.70
40670;DHT22;26355;45.528;9.234;2023-02-01T11:45:37;29.40;63.50
40670;DHT22;26355;45.528;9.234;2023-02-01T11:48:07;29.80;63.40
40670;DHT22;26355;45.528;9.234;2023-02-01T12:06:54;32.60;58.60
40670;DHT22;26355;45.528;9.234;2023-02-01T12:23:14;27.80;60.30
40670;DHT22;26355;45.528;9.234;2023-02-01T12:30:35;24.00;65.90
40670;DHT22;26355;45.528;9.234;2023-02-01T12:35:55;22.40;68.80
40670;DHT22;26355;45.528;9.234;2023-02-01T12:41:12;21.50;71.60
40670;DHT22;26355;45.528;9.234;2023-02-01T12:46:17;20.80;73.50
40670;DHT22;26355;45.528;9.234;2023-02-01T12:51:12;20.30;75.20
40670;DHT22;26355;45.528;9.234;2023-02-01T12:53:50;20.00;75.70
40670;DHT22;26355;45.528;9.234;2023-02-01T12:58:52;19.80;76.30
40670;DHT22;26355;45.528;9.234;2023-02-01T13:01:21;19.60;76.80
40670;DHT22;26355;45.528;9.234;2023-02-01T13:11:38;19.10;78.80
40670;DHT22;26355;45.528;9.234;2023-02-01T13:16:50;19.00;81.00
40670;DHT22;26355;45.528;9.234;2023-02-01T13:19:24;18.90;80.50
40670;DHT22;26355;45.528;9.234;2023-02-01T13:21:53;18.70;81.10
40670;DHT22;26355;45.528;9.234;2023-02-01T13:24:24;18.70;81.50
40670;DHT22;26355;45.528;9.234;2023-02-01T13:26:53;18.60;82.00
40670;DHT22;26355;45.528;9.234;2023-02-01T13:29:19;18.50;82.60
40670;DHT22;26355;45.528;9.234;2023-02-01T13:42:23;18.40;83.90
40670;DHT22;26355;45.528;9.234;2023-02-01T13:44:50;18.20;84.30
40670;DHT22;26355;45.528;9.234;2023-02-01T13:47:21;18.10;84.70
40670;DHT22;26355;45.528;9.234;2023-02-01T13:49:48;18.10;85.50
40670;DHT22;26355;45.528;9.234;2023-02-01T13:52:23;18.10;86.00
40670;DHT22;26355;45.528;9.234;2023-02-01T13:54:50;18.10;86.40
40670;DHT22;26355;45.528;9.234;2023-02-01T13:57:44;18.10;87.00
40670;DHT22;26355;45.528;9.234;2023-02-01T14:00:29;18.10;87.20
40670;DHT22;26355;45.528;9.234;2023-02-01T14:13:41;17.80;89.30
40670;DHT22;26355;45.528;9.234;2023-02-01T14:23:43;17.50;90.00
40670;DHT22;26355;45.528;9.234;2023-02-01T14:26:10;17.50;90.20
40670;DHT22;26355;45.528;9.234;2023-02-01T14:28:36;17.40;90.50
40670;DHT22;26355;45.528;9.234;2023-02-01T14:31:13;17.50;90.60
40670;DHT22;26355;45.528;9.234;2023-02-01T14:33:40;17.40;90.70
40670;DHT22;26355;45.528;9.234;2023-02-01T14:36:07;17.40;91.00
40670;DHT22;26355;45.528;9.234;2023-02-01T14:38:34;17.20;91.20
40670;DHT22;26355;45.528;9.234;2023-02-01T14:43:51;17.40;91.60
40670;DHT22;26355;45.528;9.234;2023-02-01T14:46:17;17.40;91.80
40670;DHT22;26355;45.528;9.234;2023-02-01T14:48:43;17.30;91.80
40670;DHT22;26355;45.528;9.234;2023-02-01T14:51:10;17.20;91.60
40670;DHT22;26355;45.528;9.234;2023-02-01T14:53:36;17.30;91.80
40670;DHT22;26355;45.528;9.234;2023-02-01T14:56:07;17.30;92.00
40670;DHT22;26355;45.528;9.234;2023-02-01T15:05:57;17.00;92.50
40670;DHT22;26355;45.528;9.234;2023-02-01T15:08:37;16.90;92.70
40670;DHT22;26355;45.528;9.234;2023-02-01T15:11:12;17.00;92.90
40670;DHT22;26355;45.528;9.234;2023-02-01T15:13:39;17.00;93.10
40670;DHT22;26355;45.528;9.234;2023-02-01T15:16:14;17.00;93.20
40670;DHT22;26355;45.528;9.234;2023-02-01T15:18:43;17.00;93.30
40670;DHT22;26355;45.528;9.234;2023-02-01T15:21:21;17.00;93.50
40670;DHT22;26355;45.528;9.234;2023-02-01T15:23:47;17.00;93.40
40670;DHT22;26355;45.528;9.234;2023-02-01T15:26:30;17.00;93.70
40670;DHT22;26355;45.528;9.234;2023-02-01T15:28:56;17.00;93.70
40670;DHT22;26355;45.528;9.234;2023-02-01T15:31:32;17.20;93.80
40670;DHT22;26355;45.528;9.234;2023-02-01T15:33:58;17.10;93.80
40670;DHT22;26355;45.528;9.234;2023-02-01T15:36:24;17.20;93.70
40670;DHT22;26355;45.528;9.234;2023-02-01T15:41:36;17.20;94.00
40670;DHT22;26355;45.528;9.234;2023-02-01T15:44:03;17.20;94.20
40670;DHT22;26355;45.528;9.234;2023-02-01T15:46:39;17.20;94.60
40670;DHT22;26355;45.528;9.234;2023-02-01T15:49:11;17.00;94.80
40670;DHT22;26355;45.528;9.234;2023-02-01T15:51:44;17.00;94.90
40670;DHT22;26355;45.528;9.234;2023-02-01T15:57:11;16.90;95.20
40670;DHT22;26355;45.528;9.234;2023-02-01T15:59:44;16.80;95.30
40670;DHT22;26355;45.528;9.234;2023-02-01T16:08:06;16.70;95.70
40670;DHT22;26355;45.528;9.234;2023-02-01T16:10:41;16.80;95.90
40670;DHT22;26355;45.528;9.234;2023-02-01T16:13:07;16.60;95.90
40670;DHT22;26355;45.528;9.234;2023-02-01T16:15:33;16.60;96.00
40670;DHT22;26355;45.528;9.234;2023-02-01T16:17:58;16.50;96.10
40670;DHT22;26355;45.528;9.234;2023-02-01T16:20:24;16.50;96.30
40670;DHT22;26355;45.528;9.234;2023-02-01T16:22:49;16.30;96.30
40670;DHT22;26355;45.528;9.234;2023-02-01T16:25:15;16.40;96.50
40670;DHT22;26355;45.528;9.234;2023-02-01T16:27:40;16.40;96.60
40670;DHT22;26355;45.528;9.234;2023-02-01T16:30:06;16.30;96.70
40670;DHT22;26355;45.528;9.234;2023-02-01T16:32:35;16.20;96.90
40670;DHT22;26355;45.528;9.234;2023-02-01T16:35:04;16.10;96.90
40670;DHT22;26355;45.528;9.234;2023-02-01T16:37:30;16.10;97.00
40670;DHT22;26355;45.528;9.234;2023-02-01T16:39:57;15.90;97.10
40670;DHT22;26355;45.528;9.234;2023-02-01T16:42:23;15.80;97.20
40670;DHT22;26355;45.528;9.234;2023-02-01T16:44:48;15.80;97.60
40670;DHT22;26355;45.528;9.234;2023-02-01T16:47:17;15.70;97.60
40670;DHT22;26355;45.528;9.234;2023-02-01T16:49:43;15.80;97.70
40670;DHT22;26355;45.528;9.234;2023-02-01T16:52:17;15.60;97.60
40670;DHT22;26355;45.528;9.234;2023-02-01T16:54:43;15.60;97.50
40670;DHT22;26355;45.528;9.234;2023-02-01T16:57:12;15.40;97.40
40670;DHT22;26355;45.528;9.234;2023-02-01T16:59:39;15.50;97.40
40670;DHT22;26355;45.528;9.234;2023-02-01T17:02:04;15.50;97.50
40670;DHT22;26355;45.528;9.234;2023-02-01T17:04:30;15.50;97.40
40670;DHT22;26355;45.528;9.234;2023-02-01T17:06:55;15.40;97.50
40670;DHT22;26355;45.528;9.234;2023-02-01T17:09:23;15.40;97.50
40670;DHT22;26355;45.528;9.234;2023-02-01T17:11:50;15.30;97.50
40670;DHT22;26355;45.528;9.234;2023-02-01T17:14:16;15.50;97.70
40670;DHT22;26355;45.528;9.234;2023-02-01T17:16:42;15.20;97.60
40670;DHT22;26355;45.528;9.234;2023-02-01T17:19:13;15.40;97.70
40670;DHT22;26355;45.528;9.234;2023-02-01T17:21:47;15.10;97.80
40670;DHT22;26355;45.528;9.234;2023-02-01T17:24:15;15.10;97.80
40670;DHT22;26355;45.528;9.234;2023-02-01T17:26:41;15.10;97.80
40670;DHT22;26355;45.528;9.234;2023-02-01T17:29:07;15.00;97.90
40670;DHT22;26355;45.528;9.234;2023-02-01T17:31:33;14.90;97.90
40670;DHT22;26355;45.528;9.234;2023-02-01T17:34:01;15.00;98.00
40670;DHT22;26355;45.528;9.234;2023-02-01T17:36:26;14.80;98.00
40670;DHT22;26355;45.528;9.234;2023-02-01T17:38:52;14.80;98.10
40670;DHT22;26355;45.528;9.234;2023-02-01T17:41:17;14.80;98.10
40670;DHT22;26355;45.528;9.234;2023-02-01T17:43:43;14.80;98.10
40670;DHT22;26355;45.528;9.234;2023-02-01T17:46:15;14.80;98.10
40670;DHT22;26355;45.528;9.234;2023-02-01T17:48:42;14.40;97.90
40670;DHT22;26355;45.528;9.234;2023-02-01T17:51:15;14.70;98.00
40670;DHT22;26355;45.528;9.234;2023-02-01T17:53:41;14.70;98.00
40670;DHT22;26355;45.528;9.234;2023-02-01T17:56:09;14.70;98.00
40670;DHT22;26355;45.528;9.234;2023-02-01T17:58:37;14.70;97.90
40670;DHT22;26355;45.528;9.234;2023-02-01T18:01:02;14.90;97.90
40670;DHT22;26355;45.528;9.234;2023-02-01T18:03:29;14.80;97.80
40670;DHT22;26355;45.528;9.234;2023-02-01T18:05:55;14.90;97.80
40670;DHT22;26355;45.528;9.234;2023-02-01T18:08:22;14.90;97.70
40670;DHT22;26355;45.528;9.234;2023-02-01T18:10:51;15.00;97.70
40670;DHT22;26355;45.528;9.234;2023-02-01T18:13:18;15.00;97.50
40670;DHT22;26355;45.528;9.234;2023-02-01T18:15:44;14.90;97.50